sensor_id;sensor_type;location;lat;lon;timestamp;P1;durP1;ratioP1;P2;durP2;ratioP2
966;SDS011;56108;48.730;9.304;2023-03-20T00:01:56;15.52;;;14.02;;
966;SDS011;56108;48.730;9.304;2023-03-20T00:04:07;17.25;;;15.45;;
966;SDS011;56108;48.730;9.304;2023-03-20T00:06:17;17.30;;;15.82;;
966;SDS011;56108;48.730;9.304;2023-03-20T00:08:25;15.80;;;14.40;;
966;SDS011;56108;48.730;9.304;2023-03-20T00:10:36;15.70;;;14.30;;
966;SDS011;56108;48.730;9.304;2023-03-20T00:12:49;15.90;;;13.77;;
966;SDS011;56108;48.730;9.304;2023-03-20T00:14:57;14.40;;;13.20;;
966;SDS011;56108;48.730;9.304;2023-03-20T00:17:08;14.00;;;12.82;;
966;SDS011;56108;48.730;9.304;2023-03-20T00:19:25;15.35;;;13.95;;
966;SDS011;56108;48.730;9.304;2023-03-20T00:21:34;14.90;;;13.50;;
966;SDS011;56108;48.730;9.304;2023-03-20T00:23:42;15.60;;;14.10;;
966;SDS011;56108;48.730;9.304;2023-03-20T00:25:51;16.00;;;14.50;;
966;SDS011;56108;48.730;9.304;2023-03-20T00:27:59;14.32;;;13.02;;
966;SDS011;56108;48.730;9.304;2023-03-20T00:30:12;14.65;;;12.00;;
966;SDS011;56108;48.730;9.304;2023-03-20T00:32:28;11.40;;;10.38;;
966;SDS011;56108;48.730;9.304;2023-03-20T00:34:39;11.60;;;10.60;;
966;SDS011;56108;48.730;9.304;2023-03-20T00:36:49;10.32;;;9.52;;
966;SDS011;56108;48.730;9.304;2023-03-20T00:38:57;9.40;;;8.60;;
966;SDS011;56108;48.730;9.304;2023-03-20T00:41:14;8.75;;;8.05;;
966;SDS011;56108;48.730;9.304;2023-03-20T00:43:28;8.60;;;7.90;;
966;SDS011;56108;48.730;9.304;2023-03-20T00:45:36;7.45;;;6.80;;
966;SDS011;56108;48.730;9.304;2023-03-20T00:47:47;6.88;;;6.18;;
966;SDS011;56108;48.730;9.304;2023-03-20T00:49:59;7.55;;;6.95;;
966;SDS011;56108;48.730;9.304;2023-03-20T00:52:10;7.03;;;6.45;;
966;SDS011;56108;48.730;9.304;2023-03-20T00:54:18;6.22;;;5.72;;
966;SDS011;56108;48.730;9.304;2023-03-20T00:56:31;5.38;;;4.97;;
966;SDS011;56108;48.730;9.304;2023-03-20T00:58:42;5.90;;;5.20;;
966;SDS011;56108;48.730;9.304;2023-03-20T01:00:50;6.03;;;5.60;;
966;SDS011;56108;48.730;9.304;2023-03-20T01:03:00;5.20;;;4.80;;
966;SDS011;56108;48.730;9.304;2023-03-20T01:05:11;5.45;;;5.03;;
966;SDS011;56108;48.730;9.304;2023-03-20T01:07:19;5.70;;;5.20;;
966;SDS011;56108;48.730;9.304;2023-03-20T01:09:27;5.13;;;4.70;;
966;SDS011;56108;48.730;9.304;2023-03-20T01:11:35;5.30;;;4.90;;
966;SDS011;56108;48.730;9.304;2023-03-20T01:13:45;5.30;;;4.90;;
966;SDS011;56108;48.730;9.304;2023-03-20T01:15:56;4.68;;;4.38;;
966;SDS011;56108;48.730;9.304;2023-03-20T01:18:05;4.90;;;4.50;;
966;SDS011;56108;48.730;9.304;2023-03-20T01:20:16;5.88;;;5.38;;
966;SDS011;56108;48.730;9.304;2023-03-20T01:22:25;5.53;;;5.13;;
966;SDS011;56108;48.730;9.304;2023-03-20T01:24:33;5.35;;;4.97;;
966;SDS011;56108;48.730;9.304;2023-03-20T01:26:44;5.13;;;4.75;;
966;SDS011;56108;48.730;9.304;2023-03-20T01:28:52;5.32;;;4.82;;
966;SDS011;56108;48.730;9.304;2023-03-20T01:31:01;4.93;;;4.53;;
966;SDS011;56108;48.730;9.304;2023-03-20T01:33:11;5.03;;;4.72;;
966;SDS011;56108;48.730;9.304;2023-03-20T01:35:26;4.55;;;4.25;;
966;SDS011;56108;48.730;9.304;2023-03-20T01:37:39;4.35;;;4.05;;
966;SDS011;56108;48.730;9.304;2023-03-20T01:39:48;3.60;;;3.40;;
966;SDS011;56108;48.730;9.304;2023-03-20T01:41:58;4.55;;;4.25;;
966;SDS011;56108;48.730;9.304;2023-03-20T01:44:13;4.57;;;4.28;;
966;SDS011;56108;48.730;9.304;2023-03-20T01:46:30;5.00;;;4.70;;
966;SDS011;56108;48.730;9.304;2023-03-20T01:51:40;5.75;;;5.18;;
966;SDS011;56108;48.730;9.304;2023-03-20T01:53:50;4.97;;;4.68;;
966;SDS011;56108;48.730;9.304;2023-03-20T01:56:01;5.47;;;5.05;;
966;SDS011;56108;48.730;9.304;2023-03-20T01:58:20;5.30;;;4.90;;
966;SDS011;56108;48.730;9.304;2023-03-20T02:00:30;4.75;;;4.45;;
966;SDS011;56108;48.730;9.304;2023-03-20T02:02:41;5.45;;;3.88;;
966;SDS011;56108;48.730;9.304;2023-03-20T02:05:14;4.82;;;4.35;;
966;SDS011;56108;48.730;9.304;2023-03-20T02:07:29;5.65;;;5.20;;
966;SDS011;56108;48.730;9.304;2023-03-20T02:09:41;5.10;;;4.70;;
966;SDS011;56108;48.730;9.304;2023-03-20T02:11:54;4.80;;;4.50;;
966;SDS011;56108;48.730;9.304;2023-03-20T02:14:04;4.85;;;4.55;;
966;SDS011;56108;48.730;9.304;2023-03-20T02:16:24;4.50;;;4.20;;
966;SDS011;56108;48.730;9.304;2023-03-20T02:18:55;4.50;;;4.20;;
966;SDS011;56108;48.730;9.304;2023-03-20T02:26:59;4.22;;;3.92;;
966;SDS011;56108;48.730;9.304;2023-03-20T02:34:52;4.15;;;3.88;;
966;SDS011;56108;48.730;9.304;2023-03-20T02:40:14;4.65;;;4.35;;
966;SDS011;56108;48.730;9.304;2023-03-20T02:42:29;4.10;;;3.83;;
966;SDS011;56108;48.730;9.304;2023-03-20T02:44:49;4.00;;;3.70;;
966;SDS011;56108;48.730;9.304;2023-03-20T02:47:06;4.00;;;3.80;;
966;SDS011;56108;48.730;9.304;2023-03-20T02:49:22;3.60;;;3.30;;
966;SDS011;56108;48.730;9.304;2023-03-20T02:51:46;4.00;;;3.70;;
966;SDS011;56108;48.730;9.304;2023-03-20T02:54:07;4.10;;;3.80;;
966;SDS011;56108;48.730;9.304;2023-03-20T02:56:22;2.83;;;2.65;;
966;SDS011;56108;48.730;9.304;2023-03-20T02:58:38;2.75;;;2.55;;
966;SDS011;56108;48.730;9.304;2023-03-20T03:00:53;2.75;;;2.65;;
966;SDS011;56108;48.730;9.304;2023-03-20T03:03:10;2.60;;;2.42;;
966;SDS011;56108;48.730;9.304;2023-03-20T03:05:23;2.50;;;2.30;;
966;SDS011;56108;48.730;9.304;2023-03-20T03:07:36;2.13;;;2.03;;
966;SDS011;56108;48.730;9.304;2023-03-20T03:09:51;2.58;;;2.40;;
966;SDS011;56108;48.730;9.304;2023-03-20T03:12:03;2.03;;;1.92;;
966;SDS011;56108;48.730;9.304;2023-03-20T03:14:17;1.70;;;1.70;;
966;SDS011;56108;48.730;9.304;2023-03-20T03:16:32;2.08;;;1.98;;
966;SDS011;56108;48.730;9.304;2023-03-20T03:18:44;1.60;;;1.55;;
966;SDS011;56108;48.730;9.304;2023-03-20T03:20:59;1.60;;;1.50;;
966;SDS011;56108;48.730;9.304;2023-03-20T03:23:09;1.95;;;1.85;;
966;SDS011;56108;48.730;9.304;2023-03-20T03:25:29;2.05;;;1.95;;
966;SDS011;56108;48.730;9.304;2023-03-20T03:27:42;1.60;;;1.60;;
966;SDS011;56108;48.730;9.304;2023-03-20T03:29:54;1.40;;;1.40;;
966;SDS011;56108;48.730;9.304;2023-03-20T03:32:05;1.95;;;1.85;;
966;SDS011;56108;48.730;9.304;2023-03-20T03:34:27;1.60;;;1.52;;
966;SDS011;56108;48.730;9.304;2023-03-20T03:36:37;2.13;;;1.85;;
966;SDS011;56108;48.730;9.304;2023-03-20T03:38:57;2.80;;;1.85;;
966;SDS011;56108;48.730;9.304;2023-03-20T03:43:38;1.90;;;1.80;;
966;SDS011;56108;48.730;9.304;2023-03-20T03:45:51;1.90;;;1.80;;
966;SDS011;56108;48.730;9.304;2023-03-20T03:48:06;1.75;;;1.65;;
966;SDS011;56108;48.730;9.304;2023-03-20T03:50:22;2.03;;;1.83;;
966;SDS011;56108;48.730;9.304;2023-03-20T03:52:36;1.70;;;1.60;;
966;SDS011;56108;48.730;9.304;2023-03-20T03:54:46;2.00;;;1.90;;
966;SDS011;56108;48.730;9.304;2023-03-20T03:57:11;1.88;;;1.77;;
966;SDS011;56108;48.730;9.304;2023-03-20T03:59:23;1.90;;;1.80;;
966;SDS011;56108;48.730;9.304;2023-03-20T04:01:36;3.20;;;2.15;;
966;SDS011;56108;48.730;9.304;2023-03-20T04:03:48;1.52;;;1.52;;
966;SDS011;56108;48.730;9.304;2023-03-20T04:05:59;1.60;;;1.50;;
966;SDS011;56108;48.730;9.304;2023-03-20T04:08:10;1.55;;;1.55;;
966;SDS011;56108;48.730;9.304;2023-03-20T04:10:21;2.28;;;2.17;;
966;SDS011;56108;48.730;9.304;2023-03-20T04:12:34;1.85;;;1.75;;
966;SDS011;56108;48.730;9.304;2023-03-20T04:14:46;1.90;;;1.80;;
966;SDS011;56108;48.730;9.304;2023-03-20T04:16:56;2.28;;;2.05;;
966;SDS011;56108;48.730;9.304;2023-03-20T04:19:06;1.40;;;1.30;;
966;SDS011;56108;48.730;9.304;2023-03-20T04:21:14;1.60;;;1.50;;
966;SDS011;56108;48.730;9.304;2023-03-20T04:23:23;1.33;;;1.30;;
966;SDS011;56108;48.730;9.304;2023-03-20T04:25:31;1.45;;;1.45;;
966;SDS011;56108;48.730;9.304;2023-03-20T04:27:43;1.30;;;1.30;;
966;SDS011;56108;48.730;9.304;2023-03-20T04:30:17;1.83;;;1.60;;
966;SDS011;56108;48.730;9.304;2023-03-20T04:32:44;2.20;;;2.10;;
966;SDS011;56108;48.730;9.304;2023-03-20T04:35:18;1.80;;;1.70;;
966;SDS011;56108;48.730;9.304;2023-03-20T04:37:30;2.30;;;2.20;;
966;SDS011;56108;48.730;9.304;2023-03-20T04:39:42;2.08;;;1.98;;
966;SDS011;56108;48.730;9.304;2023-03-20T04:41:51;1.85;;;1.73;;
966;SDS011;56108;48.730;9.304;2023-03-20T04:44:01;1.80;;;1.70;;
966;SDS011;56108;48.730;9.304;2023-03-20T04:46:11;2.33;;;2.20;;
966;SDS011;56108;48.730;9.304;2023-03-20T04:48:19;2.20;;;2.05;;
966;SDS011;56108;48.730;9.304;2023-03-20T04:50:27;3.05;;;2.83;;
966;SDS011;56108;48.730;9.304;2023-03-20T04:52:35;6.40;;;3.53;;
966;SDS011;56108;48.730;9.304;2023-03-20T04:54:44;2.70;;;2.50;;
966;SDS011;56108;48.730;9.304;2023-03-20T04:56:52;2.80;;;2.70;;
966;SDS011;56108;48.730;9.304;2023-03-20T04:59:02;2.30;;;2.20;;
966;SDS011;56108;48.730;9.304;2023-03-20T05:01:10;3.03;;;2.83;;
966;SDS011;56108;48.730;9.304;2023-03-20T05:03:19;3.10;;;2.90;;
966;SDS011;56108;48.730;9.304;2023-03-20T05:05:28;3.45;;;3.25;;
966;SDS011;56108;48.730;9.304;2023-03-20T05:07:37;3.10;;;2.90;;
966;SDS011;56108;48.730;9.304;2023-03-20T05:09:47;3.13;;;2.92;;
966;SDS011;56108;48.730;9.304;2023-03-20T05:11:56;3.75;;;3.45;;
966;SDS011;56108;48.730;9.304;2023-03-20T05:14:25;3.03;;;2.92;;
966;SDS011;56108;48.730;9.304;2023-03-20T05:16:58;3.28;;;3.08;;
966;SDS011;56108;48.730;9.304;2023-03-20T05:19:24;3.00;;;2.90;;
966;SDS011;56108;48.730;9.304;2023-03-20T05:21:49;3.10;;;2.67;;
966;SDS011;56108;48.730;9.304;2023-03-20T05:23:57;2.95;;;2.75;;
966;SDS011;56108;48.730;9.304;2023-03-20T05:26:27;4.30;;;3.08;;
966;SDS011;56108;48.730;9.304;2023-03-20T05:28:52;3.15;;;2.95;;
966;SDS011;56108;48.730;9.304;2023-03-20T05:31:11;2.90;;;2.70;;
966;SDS011;56108;48.730;9.304;2023-03-20T05:33:38;3.20;;;3.00;;
966;SDS011;56108;48.730;9.304;2023-03-20T05:35:53;3.28;;;2.97;;
966;SDS011;56108;48.730;9.304;2023-03-20T05:38:20;3.25;;;2.60;;
966;SDS011;56108;48.730;9.304;2023-03-20T05:40:49;3.22;;;3.03;;
966;SDS011;56108;48.730;9.304;2023-03-20T05:43:20;4.15;;;2.75;;
966;SDS011;56108;48.730;9.304;2023-03-20T05:45:46;3.35;;;3.15;;
966;SDS011;56108;48.730;9.304;2023-03-20T05:48:13;2.55;;;2.35;;
966;SDS011;56108;48.730;9.304;2023-03-20T05:50:30;2.70;;;2.60;;
966;SDS011;56108;48.730;9.304;2023-03-20T05:52:51;2.70;;;2.50;;
966;SDS011;56108;48.730;9.304;2023-03-20T05:55:16;2.90;;;2.70;;
966;SDS011;56108;48.730;9.304;2023-03-20T05:57:31;3.22;;;3.03;;
966;SDS011;56108;48.730;9.304;2023-03-20T05:59:57;3.30;;;3.10;;
966;SDS011;56108;48.730;9.304;2023-03-20T06:02:21;3.35;;;2.80;;
966;SDS011;56108;48.730;9.304;2023-03-20T06:04:42;4.82;;;2.83;;
966;SDS011;56108;48.730;9.304;2023-03-20T06:07:04;2.70;;;2.50;;
966;SDS011;56108;48.730;9.304;2023-03-20T06:09:14;2.25;;;2.15;;
966;SDS011;56108;48.730;9.304;2023-03-20T06:11:25;3.20;;;3.00;;
966;SDS011;56108;48.730;9.304;2023-03-20T06:13:33;3.47;;;2.80;;
966;SDS011;56108;48.730;9.304;2023-03-20T06:15:41;3.17;;;2.88;;
966;SDS011;56108;48.730;9.304;2023-03-20T06:17:53;3.55;;;2.60;;
966;SDS011;56108;48.730;9.304;2023-03-20T06:20:05;2.72;;;2.53;;
966;SDS011;56108;48.730;9.304;2023-03-20T06:22:15;3.28;;;3.08;;
966;SDS011;56108;48.730;9.304;2023-03-20T06:24:23;3.45;;;3.15;;
966;SDS011;56108;48.730;9.304;2023-03-20T06:26:31;3.10;;;2.85;;
966;SDS011;56108;48.730;9.304;2023-03-20T06:28:44;3.65;;;3.40;;
966;SDS011;56108;48.730;9.304;2023-03-20T06:30:52;2.95;;;2.65;;
966;SDS011;56108;48.730;9.304;2023-03-20T06:33:03;3.00;;;2.80;;
966;SDS011;56108;48.730;9.304;2023-03-20T06:35:28;2.42;;;2.22;;
966;SDS011;56108;48.730;9.304;2023-03-20T06:37:38;2.72;;;2.53;;
966;SDS011;56108;48.730;9.304;2023-03-20T06:39:51;2.63;;;2.40;;
966;SDS011;56108;48.730;9.304;2023-03-20T06:41:59;2.28;;;2.17;;
966;SDS011;56108;48.730;9.304;2023-03-20T06:44:08;2.60;;;2.40;;
966;SDS011;56108;48.730;9.304;2023-03-20T06:46:48;2.42;;;2.30;;
966;SDS011;56108;48.730;9.304;2023-03-20T06:48:56;2.35;;;2.25;;
966;SDS011;56108;48.730;9.304;2023-03-20T06:51:09;3.33;;;2.47;;
966;SDS011;56108;48.730;9.304;2023-03-20T06:53:26;3.10;;;2.90;;
966;SDS011;56108;48.730;9.304;2023-03-20T06:55:45;2.90;;;2.70;;
966;SDS011;56108;48.730;9.304;2023-03-20T06:57:54;2.70;;;2.50;;
966;SDS011;56108;48.730;9.304;2023-03-20T07:00:03;2.70;;;2.50;;
966;SDS011;56108;48.730;9.304;2023-03-20T07:02:13;2.40;;;2.30;;
966;SDS011;56108;48.730;9.304;2023-03-20T07:04:21;3.60;;;2.60;;
966;SDS011;56108;48.730;9.304;2023-03-20T07:06:35;2.40;;;2.10;;
966;SDS011;56108;48.730;9.304;2023-03-20T07:08:44;2.00;;;1.90;;
966;SDS011;56108;48.730;9.304;2023-03-20T07:10:52;2.55;;;2.45;;
966;SDS011;56108;48.730;9.304;2023-03-20T07:13:00;2.22;;;2.13;;
966;SDS011;56108;48.730;9.304;2023-03-20T07:15:10;2.25;;;2.05;;
966;SDS011;56108;48.730;9.304;2023-03-20T07:17:18;4.00;;;2.25;;
966;SDS011;56108;48.730;9.304;2023-03-20T07:19:27;2.95;;;2.65;;
966;SDS011;56108;48.730;9.304;2023-03-20T07:21:38;2.70;;;2.50;;
966;SDS011;56108;48.730;9.304;2023-03-20T07:23:49;2.92;;;2.72;;
966;SDS011;56108;48.730;9.304;2023-03-20T07:25:57;6.00;;;3.22;;
966;SDS011;56108;48.730;9.304;2023-03-20T07:28:06;2.97;;;2.78;;
966;SDS011;56108;48.730;9.304;2023-03-20T07:30:17;3.72;;;3.42;;
966;SDS011;56108;48.730;9.304;2023-03-20T07:32:26;2.30;;;2.20;;
966;SDS011;56108;48.730;9.304;2023-03-20T07:34:34;2.65;;;2.45;;
966;SDS011;56108;48.730;9.304;2023-03-20T07:36:48;2.40;;;2.30;;
966;SDS011;56108;48.730;9.304;2023-03-20T07:38:58;2.50;;;2.40;;
966;SDS011;56108;48.730;9.304;2023-03-20T07:41:07;2.30;;;2.00;;
966;SDS011;56108;48.730;9.304;2023-03-20T07:43:19;2.45;;;2.25;;
966;SDS011;56108;48.730;9.304;2023-03-20T07:45:48;2.33;;;2.20;;
966;SDS011;56108;48.730;9.304;2023-03-20T07:47:56;2.40;;;2.30;;
966;SDS011;56108;48.730;9.304;2023-03-20T07:50:05;2.70;;;2.50;;
966;SDS011;56108;48.730;9.304;2023-03-20T07:52:15;2.25;;;2.15;;
966;SDS011;56108;48.730;9.304;2023-03-20T07:54:25;2.20;;;2.10;;
966;SDS011;56108;48.730;9.304;2023-03-20T07:56:34;2.63;;;2.50;;
966;SDS011;56108;48.730;9.304;2023-03-20T07:58:42;2.30;;;2.20;;
966;SDS011;56108;48.730;9.304;2023-03-20T08:00:50;3.85;;;2.15;;
966;SDS011;56108;48.730;9.304;2023-03-20T08:02:58;2.70;;;2.50;;
966;SDS011;56108;48.730;9.304;2023-03-20T08:05:06;2.35;;;2.25;;
966;SDS011;56108;48.730;9.304;2023-03-20T08:07:18;2.53;;;2.33;;
966;SDS011;56108;48.730;9.304;2023-03-20T08:09:26;1.75;;;1.65;;
966;SDS011;56108;48.730;9.304;2023-03-20T08:11:34;2.15;;;2.05;;
966;SDS011;56108;48.730;9.304;2023-03-20T08:13:42;2.05;;;1.95;;
966;SDS011;56108;48.730;9.304;2023-03-20T08:15:50;2.30;;;2.20;;
966;SDS011;56108;48.730;9.304;2023-03-20T08:17:58;2.50;;;2.30;;
966;SDS011;56108;48.730;9.304;2023-03-20T08:20:06;2.40;;;2.28;;
966;SDS011;56108;48.730;9.304;2023-03-20T08:22:18;2.05;;;1.95;;
966;SDS011;56108;48.730;9.304;2023-03-20T08:24:25;2.35;;;2.25;;
966;SDS011;56108;48.730;9.304;2023-03-20T08:26:33;2.08;;;1.98;;
966;SDS011;56108;48.730;9.304;2023-03-20T08:28:41;1.80;;;1.70;;
966;SDS011;56108;48.730;9.304;2023-03-20T08:30:52;2.05;;;1.95;;
966;SDS011;56108;48.730;9.304;2023-03-20T08:33:00;2.30;;;1.60;;
966;SDS011;56108;48.730;9.304;2023-03-20T08:35:08;2.45;;;2.08;;
966;SDS011;56108;48.730;9.304;2023-03-20T08:37:38;1.77;;;1.67;;
966;SDS011;56108;48.730;9.304;2023-03-20T08:39:46;3.17;;;2.40;;
966;SDS011;56108;48.730;9.304;2023-03-20T08:41:54;2.78;;;2.20;;
966;SDS011;56108;48.730;9.304;2023-03-20T08:44:04;2.70;;;2.50;;
966;SDS011;56108;48.730;9.304;2023-03-20T08:46:13;2.80;;;2.00;;
966;SDS011;56108;48.730;9.304;2023-03-20T08:48:21;1.70;;;1.60;;
966;SDS011;56108;48.730;9.304;2023-03-20T08:50:29;1.90;;;1.80;;
966;SDS011;56108;48.730;9.304;2023-03-20T08:52:40;3.42;;;1.55;;
966;SDS011;56108;48.730;9.304;2023-03-20T08:54:50;2.00;;;1.90;;
966;SDS011;56108;48.730;9.304;2023-03-20T08:56:58;2.13;;;2.03;;
966;SDS011;56108;48.730;9.304;2023-03-20T08:59:06;1.80;;;1.70;;
966;SDS011;56108;48.730;9.304;2023-03-20T09:01:14;1.60;;;1.50;;
966;SDS011;56108;48.730;9.304;2023-03-20T09:03:23;1.88;;;1.77;;
966;SDS011;56108;48.730;9.304;2023-03-20T09:05:31;2.30;;;2.20;;
966;SDS011;56108;48.730;9.304;2023-03-20T09:07:42;2.10;;;1.80;;
966;SDS011;56108;48.730;9.304;2023-03-20T09:09:50;1.92;;;1.83;;
966;SDS011;56108;48.730;9.304;2023-03-20T09:11:58;1.98;;;1.80;;
966;SDS011;56108;48.730;9.304;2023-03-20T09:14:07;1.73;;;1.63;;
966;SDS011;56108;48.730;9.304;2023-03-20T09:16:15;2.00;;;1.90;;
966;SDS011;56108;48.730;9.304;2023-03-20T09:18:24;1.75;;;1.67;;
966;SDS011;56108;48.730;9.304;2023-03-20T09:20:33;1.80;;;1.70;;
966;SDS011;56108;48.730;9.304;2023-03-20T09:22:44;1.58;;;1.58;;
966;SDS011;56108;48.730;9.304;2023-03-20T09:24:52;2.40;;;2.20;;
966;SDS011;56108;48.730;9.304;2023-03-20T09:27:01;2.35;;;1.80;;
966;SDS011;56108;48.730;9.304;2023-03-20T09:29:09;2.35;;;2.13;;
966;SDS011;56108;48.730;9.304;2023-03-20T09:31:17;1.85;;;1.75;;
966;SDS011;56108;48.730;9.304;2023-03-20T09:33:26;2.60;;;2.40;;
966;SDS011;56108;48.730;9.304;2023-03-20T09:35:34;1.95;;;1.85;;
966;SDS011;56108;48.730;9.304;2023-03-20T09:37:47;1.85;;;1.75;;
966;SDS011;56108;48.730;9.304;2023-03-20T09:39:56;2.58;;;1.98;;
966;SDS011;56108;48.730;9.304;2023-03-20T09:42:06;2.00;;;1.90;;
966;SDS011;56108;48.730;9.304;2023-03-20T09:44:31;2.35;;;2.15;;
966;SDS011;56108;48.730;9.304;2023-03-20T09:46:55;1.77;;;1.67;;
966;SDS011;56108;48.730;9.304;2023-03-20T09:49:27;2.03;;;1.92;;
966;SDS011;56108;48.730;9.304;2023-03-20T09:51:46;1.85;;;1.75;;
966;SDS011;56108;48.730;9.304;2023-03-20T09:54:01;1.90;;;1.80;;
966;SDS011;56108;48.730;9.304;2023-03-20T09:56:14;1.67;;;1.58;;
966;SDS011;56108;48.730;9.304;2023-03-20T09:58:26;2.17;;;1.88;;
966;SDS011;56108;48.730;9.304;2023-03-20T10:00:39;1.85;;;1.75;;
966;SDS011;56108;48.730;9.304;2023-03-20T10:02:51;2.20;;;2.10;;
966;SDS011;56108;48.730;9.304;2023-03-20T10:05:05;2.00;;;1.90;;
966;SDS011;56108;48.730;9.304;2023-03-20T10:07:23;2.10;;;2.00;;
966;SDS011;56108;48.730;9.304;2023-03-20T10:09:35;2.30;;;2.20;;
966;SDS011;56108;48.730;9.304;2023-03-20T10:11:48;1.70;;;1.67;;
966;SDS011;56108;48.730;9.304;2023-03-20T10:14:19;1.92;;;1.83;;
966;SDS011;56108;48.730;9.304;2023-03-20T10:16:37;2.30;;;2.13;;
966;SDS011;56108;48.730;9.304;2023-03-20T10:19:00;2.08;;;1.98;;
966;SDS011;56108;48.730;9.304;2023-03-20T10:21:14;2.25;;;2.15;;
966;SDS011;56108;48.730;9.304;2023-03-20T10:23:25;2.00;;;1.80;;
966;SDS011;56108;48.730;9.304;2023-03-20T10:25:44;1.95;;;1.85;;
966;SDS011;56108;48.730;9.304;2023-03-20T10:27:58;1.95;;;1.85;;
966;SDS011;56108;48.730;9.304;2023-03-20T10:30:15;2.00;;;1.90;;
966;SDS011;56108;48.730;9.304;2023-03-20T10:32:41;1.98;;;1.88;;
966;SDS011;56108;48.730;9.304;2023-03-20T10:34:56;2.40;;;2.20;;
966;SDS011;56108;48.730;9.304;2023-03-20T10:37:19;3.78;;;1.60;;
966;SDS011;56108;48.730;9.304;2023-03-20T10:39:45;1.70;;;1.60;;
966;SDS011;56108;48.730;9.304;2023-03-20T10:42:06;1.58;;;1.48;;
966;SDS011;56108;48.730;9.304;2023-03-20T10:44:21;1.73;;;1.63;;
966;SDS011;56108;48.730;9.304;2023-03-20T10:46:36;4.25;;;1.48;;
966;SDS011;56108;48.730;9.304;2023-03-20T10:48:48;2.10;;;1.80;;
966;SDS011;56108;48.730;9.304;2023-03-20T10:51:00;1.40;;;1.40;;
966;SDS011;56108;48.730;9.304;2023-03-20T10:53:13;1.77;;;1.67;;
966;SDS011;56108;48.730;9.304;2023-03-20T10:55:31;1.52;;;1.42;;
966;SDS011;56108;48.730;9.304;2023-03-20T10:57:48;1.35;;;1.35;;
966;SDS011;56108;48.730;9.304;2023-03-20T10:59:59;1.30;;;1.20;;
966;SDS011;56108;48.730;9.304;2023-03-20T11:02:09;3.10;;;1.60;;
966;SDS011;56108;48.730;9.304;2023-03-20T11:04:17;1.70;;;1.50;;
966;SDS011;56108;48.730;9.304;2023-03-20T11:06:26;1.90;;;1.70;;
966;SDS011;56108;48.730;9.304;2023-03-20T11:08:38;1.38;;;1.35;;
966;SDS011;56108;48.730;9.304;2023-03-20T11:10:51;1.50;;;1.40;;
966;SDS011;56108;48.730;9.304;2023-03-20T11:13:15;1.48;;;1.38;;
966;SDS011;56108;48.730;9.304;2023-03-20T11:15:33;2.45;;;1.83;;
966;SDS011;56108;48.730;9.304;2023-03-20T11:17:41;1.35;;;1.35;;
966;SDS011;56108;48.730;9.304;2023-03-20T11:19:49;2.55;;;1.95;;
966;SDS011;56108;48.730;9.304;2023-03-20T11:21:58;1.65;;;1.55;;
966;SDS011;56108;48.730;9.304;2023-03-20T11:24:17;1.75;;;1.65;;
966;SDS011;56108;48.730;9.304;2023-03-20T11:26:33;8.35;;;6.03;;
966;SDS011;56108;48.730;9.304;2023-03-20T11:28:49;1.70;;;1.60;;
966;SDS011;56108;48.730;9.304;2023-03-20T11:31:01;1.55;;;1.45;;
966;SDS011;56108;48.730;9.304;2023-03-20T11:33:11;1.70;;;1.60;;
966;SDS011;56108;48.730;9.304;2023-03-20T11:35:26;1.50;;;1.40;;
966;SDS011;56108;48.730;9.304;2023-03-20T11:37:42;1.55;;;1.45;;
966;SDS011;56108;48.730;9.304;2023-03-20T11:39:58;2.30;;;2.10;;
966;SDS011;56108;48.730;9.304;2023-03-20T11:42:20;2.28;;;2.13;;
966;SDS011;56108;48.730;9.304;2023-03-20T11:44:33;2.83;;;2.63;;
966;SDS011;56108;48.730;9.304;2023-03-20T11:46:42;3.03;;;2.83;;
966;SDS011;56108;48.730;9.304;2023-03-20T11:49:00;4.57;;;3.70;;
966;SDS011;56108;48.730;9.304;2023-03-20T11:51:31;3.33;;;3.03;;
966;SDS011;56108;48.730;9.304;2023-03-20T11:53:53;3.03;;;2.83;;
966;SDS011;56108;48.730;9.304;2023-03-20T11:56:07;3.65;;;3.40;;
966;SDS011;56108;48.730;9.304;2023-03-20T11:58:17;4.05;;;3.65;;
966;SDS011;56108;48.730;9.304;2023-03-20T12:00:28;4.40;;;4.10;;
966;SDS011;56108;48.730;9.304;2023-03-20T12:02:42;4.90;;;4.50;;
966;SDS011;56108;48.730;9.304;2023-03-20T12:04:51;4.97;;;4.57;;
966;SDS011;56108;48.730;9.304;2023-03-20T12:07:00;5.20;;;4.70;;
966;SDS011;56108;48.730;9.304;2023-03-20T12:09:23;4.72;;;4.32;;
966;SDS011;56108;48.730;9.304;2023-03-20T12:11:41;6.85;;;5.00;;
966;SDS011;56108;48.730;9.304;2023-03-20T12:14:03;5.75;;;5.25;;
966;SDS011;56108;48.730;9.304;2023-03-20T12:16:21;5.93;;;5.43;;
966;SDS011;56108;48.730;9.304;2023-03-20T12:18:32;5.00;;;4.50;;
966;SDS011;56108;48.730;9.304;2023-03-20T12:20:45;5.40;;;4.90;;
966;SDS011;56108;48.730;9.304;2023-03-20T12:23:05;5.95;;;5.35;;
966;SDS011;56108;48.730;9.304;2023-03-20T12:25:20;6.18;;;4.95;;
966;SDS011;56108;48.730;9.304;2023-03-20T12:27:31;7.68;;;4.53;;
966;SDS011;56108;48.730;9.304;2023-03-20T12:29:45;5.40;;;4.90;;
966;SDS011;56108;48.730;9.304;2023-03-20T12:34:38;5.75;;;5.32;;
966;SDS011;56108;48.730;9.304;2023-03-20T12:36:50;6.35;;;5.75;;
966;SDS011;56108;48.730;9.304;2023-03-20T12:39:01;7.47;;;5.90;;
966;SDS011;56108;48.730;9.304;2023-03-20T12:41:12;7.22;;;5.95;;
966;SDS011;56108;48.730;9.304;2023-03-20T12:43:22;6.18;;;5.57;;
966;SDS011;56108;48.730;9.304;2023-03-20T12:45:32;6.32;;;5.82;;
966;SDS011;56108;48.730;9.304;2023-03-20T12:47:53;5.55;;;5.15;;
966;SDS011;56108;48.730;9.304;2023-03-20T12:50:17;6.18;;;5.63;;
966;SDS011;56108;48.730;9.304;2023-03-20T12:52:36;6.13;;;5.53;;
966;SDS011;56108;48.730;9.304;2023-03-20T12:55:06;6.22;;;5.72;;
966;SDS011;56108;48.730;9.304;2023-03-20T12:57:23;5.47;;;5.07;;
966;SDS011;56108;48.730;9.304;2023-03-20T12:59:41;5.18;;;4.68;;
966;SDS011;56108;48.730;9.304;2023-03-20T13:02:01;5.30;;;4.90;;
966;SDS011;56108;48.730;9.304;2023-03-20T13:04:30;5.38;;;4.90;;
966;SDS011;56108;48.730;9.304;2023-03-20T13:06:58;5.20;;;4.80;;
966;SDS011;56108;48.730;9.304;2023-03-20T13:11:50;5.88;;;5.38;;
966;SDS011;56108;48.730;9.304;2023-03-20T13:14:27;5.13;;;4.72;;
966;SDS011;56108;48.730;9.304;2023-03-20T13:16:44;5.35;;;4.57;;
966;SDS011;56108;48.730;9.304;2023-03-20T13:19:05;4.93;;;4.53;;
966;SDS011;56108;48.730;9.304;2023-03-20T13:21:18;5.22;;;4.82;;
966;SDS011;56108;48.730;9.304;2023-03-20T13:23:37;6.65;;;5.50;;
966;SDS011;56108;48.730;9.304;2023-03-20T13:25:59;7.20;;;6.40;;
966;SDS011;56108;48.730;9.304;2023-03-20T13:28:15;5.22;;;4.72;;
966;SDS011;56108;48.730;9.304;2023-03-20T13:30:33;6.97;;;5.53;;
966;SDS011;56108;48.730;9.304;2023-03-20T13:32:49;5.03;;;4.50;;
966;SDS011;56108;48.730;9.304;2023-03-20T13:37:49;4.70;;;4.22;;
966;SDS011;56108;48.730;9.304;2023-03-20T13:40:10;4.30;;;4.00;;
966;SDS011;56108;48.730;9.304;2023-03-20T13:42:24;5.38;;;4.90;;
966;SDS011;56108;48.730;9.304;2023-03-20T13:44:37;5.97;;;5.20;;
966;SDS011;56108;48.730;9.304;2023-03-20T13:46:47;5.25;;;4.85;;
966;SDS011;56108;48.730;9.304;2023-03-20T13:49:13;5.82;;;4.75;;
966;SDS011;56108;48.730;9.304;2023-03-20T13:51:28;4.70;;;4.40;;
966;SDS011;56108;48.730;9.304;2023-03-20T13:53:54;6.25;;;5.63;;
966;SDS011;56108;48.730;9.304;2023-03-20T13:56:14;5.10;;;4.70;;
966;SDS011;56108;48.730;9.304;2023-03-20T13:58:40;7.65;;;5.93;;
966;SDS011;56108;48.730;9.304;2023-03-20T14:01:10;5.63;;;5.13;;
966;SDS011;56108;48.730;9.304;2023-03-20T14:03:26;6.82;;;5.35;;
966;SDS011;56108;48.730;9.304;2023-03-20T14:05:39;5.65;;;5.25;;
966;SDS011;56108;48.730;9.304;2023-03-20T14:07:48;5.43;;;4.97;;
966;SDS011;56108;48.730;9.304;2023-03-20T14:12:51;6.45;;;5.03;;
966;SDS011;56108;48.730;9.304;2023-03-20T14:15:01;7.47;;;5.10;;
966;SDS011;56108;48.730;9.304;2023-03-20T14:17:13;9.88;;;5.60;;
966;SDS011;56108;48.730;9.304;2023-03-20T14:19:24;6.22;;;5.72;;
966;SDS011;56108;48.730;9.304;2023-03-20T14:21:33;6.47;;;5.88;;
966;SDS011;56108;48.730;9.304;2023-03-20T14:23:42;6.65;;;6.15;;